sensor_id;sensor_type;location;lat;lon;timestamp;pressure;altitude;pressure_sealevel;temperature;humidity
70370;BME280;57790;51.356;-2.906;2023-05-09T00:01:17;101573.00;;;14.68;100.00
70370;BME280;57790;51.356;-2.906;2023-05-09T00:04:18;101572.19;;;14.67;100.00
70370;BME280;57790;51.356;-2.906;2023-05-09T00:07:18;101570.53;;;14.66;100.00
70370;BME280;57790;51.356;-2.906;2023-05-09T00:10:19;101570.53;;;14.66;100.00
70370;BME280;57790;51.356;-2.906;2023-05-09T00:13:19;101571.34;;;14.67;100.00
70370;BME280;57790;51.356;-2.906;2023-05-09T00:16:20;101559.19;;;14.64;100.00
70370;BME280;57790;51.356;-2.906;2023-05-09T00:19:23;101565.34;;;14.65;100.00
70370;BME280;57790;51.356;-2.906;2023-05-09T00:22:23;101561.03;;;14.64;100.00
70370;BME280;57790;51.356;-2.906;2023-05-09T00:25:24;101560.19;;;14.63;100.00
70370;BME280;57790;51.356;-2.906;2023-05-09T00:28:24;101561.19;;;14.62;100.00
70370;BME280;57790;51.356;-2.906;2023-05-09T00:31:24;101552.19;;;14.63;100.00
70370;BME280;57790;51.356;-2.906;2023-05-09T00:34:25;101556.69;;;14.63;100.00
70370;BME280;57790;51.356;-2.906;2023-05-09T00:37:25;101557.84;;;14.60;100.00
70370;BME280;57790;51.356;-2.906;2023-05-09T00:40:26;101555.34;;;14.58;100.00
70370;BME280;57790;51.356;-2.906;2023-05-09T00:43:26;101548.16;;;14.59;100.00
70370;BME280;57790;51.356;-2.906;2023-05-09T00:46:27;101553.50;;;14.59;100.00
70370;BME280;57790;51.356;-2.906;2023-05-09T00:49:27;101545.66;;;14.57;100.00
70370;BME280;57790;51.356;-2.906;2023-05-09T00:52:28;101556.34;;;14.57;100.00
70370;BME280;57790;51.356;-2.906;2023-05-09T00:55:29;101552.84;;;14.57;100.00
70370;BME280;57790;51.356;-2.906;2023-05-09T00:58:30;101550.16;;;14.57;100.00
70370;BME280;57790;51.356;-2.906;2023-05-09T01:01:30;101545.84;;;14.56;100.00
70370;BME280;57790;51.356;-2.906;2023-05-09T01:04:31;101538.84;;;14.55;100.00
70370;BME280;57790;51.356;-2.906;2023-05-09T01:07:38;101541.50;;;14.55;100.00
70370;BME280;57790;51.356;-2.906;2023-05-09T01:20:43;101523.00;;;14.53;100.00
70370;BME280;57790;51.356;-2.906;2023-05-09T01:27:03;101523.16;;;14.52;100.00
70370;BME280;57790;51.356;-2.906;2023-05-09T01:30:07;101519.00;;;14.49;100.00
70370;BME280;57790;51.356;-2.906;2023-05-09T01:33:09;101510.00;;;14.50;100.00
70370;BME280;57790;51.356;-2.906;2023-05-09T01:36:15;101499.31;;;14.50;100.00
70370;BME280;57790;51.356;-2.906;2023-05-09T01:39:18;101495.81;;;14.50;100.00
70370;BME280;57790;51.356;-2.906;2023-05-09T01:42:20;101496.84;;;14.49;100.00
70370;BME280;57790;51.356;-2.906;2023-05-09T01:45:22;101500.34;;;14.49;100.00
70370;BME280;57790;51.356;-2.906;2023-05-09T01:48:24;101491.50;;;14.49;100.00
70370;BME280;57790;51.356;-2.906;2023-05-09T01:51:26;101484.50;;;14.48;100.00
70370;BME280;57790;51.356;-2.906;2023-05-09T01:54:28;101489.00;;;14.47;100.00
70370;BME280;57790;51.356;-2.906;2023-05-09T01:57:29;101482.97;;;14.45;100.00
70370;BME280;57790;51.356;-2.906;2023-05-09T02:00:32;101489.00;;;14.47;100.00
70370;BME280;57790;51.356;-2.906;2023-05-09T02:03:33;101488.16;;;14.47;100.00
70370;BME280;57790;51.356;-2.906;2023-05-09T02:06:36;101494.34;;;14.47;100.00
70370;BME280;57790;51.356;-2.906;2023-05-09T02:09:37;101489.13;;;14.46;100.00
70370;BME280;57790;51.356;-2.906;2023-05-09T02:12:38;101486.47;;;14.46;100.00
70370;BME280;57790;51.356;-2.906;2023-05-09T02:15:39;101490.84;;;14.47;100.00
70370;BME280;57790;51.356;-2.906;2023-05-09T02:18:39;101486.47;;;14.46;100.00
70370;BME280;57790;51.356;-2.906;2023-05-09T02:21:40;101489.31;;;14.44;100.00
70370;BME280;57790;51.356;-2.906;2023-05-09T02:24:42;101476.81;;;14.45;100.00
70370;BME280;57790;51.356;-2.906;2023-05-09T02:27:45;101477.81;;;14.44;100.00
70370;BME280;57790;51.356;-2.906;2023-05-09T02:30:46;101474.28;;;14.43;100.00
70370;BME280;57790;51.356;-2.906;2023-05-09T02:33:49;101467.13;;;14.44;100.00
70370;BME280;57790;51.356;-2.906;2023-05-09T02:36:51;101473.44;;;14.43;100.00
70370;BME280;57790;51.356;-2.906;2023-05-09T02:39:53;101472.63;;;14.42;100.00
70370;BME280;57790;51.356;-2.906;2023-05-09T02:42:54;101473.63;;;14.41;100.00
70370;BME280;57790;51.356;-2.906;2023-05-09T02:45:54;101469.28;;;14.40;100.00
70370;BME280;57790;51.356;-2.906;2023-05-09T02:48:54;101475.63;;;14.39;100.00
70370;BME280;57790;51.356;-2.906;2023-05-09T02:51:55;101479.97;;;14.40;100.00
70370;BME280;57790;51.356;-2.906;2023-05-09T02:54:55;101478.28;;;14.39;100.00
70370;BME280;57790;51.356;-2.906;2023-05-09T02:57:56;101479.13;;;14.40;100.00
70370;BME280;57790;51.356;-2.906;2023-05-09T03:00:56;101472.13;;;14.39;100.00
70370;BME280;57790;51.356;-2.906;2023-05-09T03:03:57;101472.97;;;14.39;100.00
70370;BME280;57790;51.356;-2.906;2023-05-09T03:06:57;101480.97;;;14.39;100.00
70370;BME280;57790;51.356;-2.906;2023-05-09T03:09:57;101486.31;;;14.39;100.00
70370;BME280;57790;51.356;-2.906;2023-05-09T03:12:58;101476.47;;;14.40;100.00
70370;BME280;57790;51.356;-2.906;2023-05-09T03:15:58;101474.78;;;14.39;100.00
70370;BME280;57790;51.356;-2.906;2023-05-09T03:18:59;101467.78;;;14.38;100.00
70370;BME280;57790;51.356;-2.906;2023-05-09T03:21:59;101473.13;;;14.38;100.00
70370;BME280;57790;51.356;-2.906;2023-05-09T03:25:00;101470.47;;;14.38;100.00
70370;BME280;57790;51.356;-2.906;2023-05-09T03:28:00;101470.81;;;14.35;100.00
70370;BME280;57790;51.356;-2.906;2023-05-09T03:31:00;101467.47;;;14.33;100.00
70370;BME280;57790;51.356;-2.906;2023-05-09T03:34:01;101466.66;;;14.32;100.00
70370;BME280;57790;51.356;-2.906;2023-05-09T03:37:01;101470.16;;;14.33;100.00
70370;BME280;57790;51.356;-2.906;2023-05-09T03:40:02;101485.31;;;14.32;100.00
70370;BME280;57790;51.356;-2.906;2023-05-09T03:43:03;101475.50;;;14.33;100.00
70370;BME280;57790;51.356;-2.906;2023-05-09T03:46:03;101473.13;;;14.29;100.00
70370;BME280;57790;51.356;-2.906;2023-05-09T03:49:04;101462.47;;;14.29;100.00
70370;BME280;57790;51.356;-2.906;2023-05-09T03:52:04;101458.13;;;14.28;100.00
70370;BME280;57790;51.356;-2.906;2023-05-09T03:55:05;101455.63;;;14.27;100.00
70370;BME280;57790;51.356;-2.906;2023-05-09T03:58:05;101454.97;;;14.25;100.00
70370;BME280;57790;51.356;-2.906;2023-05-09T04:01:06;101449.63;;;14.25;100.00
70370;BME280;57790;51.356;-2.906;2023-05-09T04:04:06;101439.81;;;14.25;100.00
70370;BME280;57790;51.356;-2.906;2023-05-09T04:07:06;101444.31;;;14.25;100.00
70370;BME280;57790;51.356;-2.906;2023-05-09T04:10:07;101445.31;;;14.24;100.00
70370;BME280;57790;51.356;-2.906;2023-05-09T04:13:08;101438.31;;;14.23;100.00
70370;BME280;57790;51.356;-2.906;2023-05-09T04:16:08;101439.31;;;14.22;100.00
70370;BME280;57790;51.356;-2.906;2023-05-09T04:19:09;101438.47;;;14.21;100.00
70370;BME280;57790;51.356;-2.906;2023-05-09T04:22:09;101437.66;;;14.21;100.00
70370;BME280;57790;51.356;-2.906;2023-05-09T04:25:10;101434.16;;;14.20;100.00
70370;BME280;57790;51.356;-2.906;2023-05-09T04:28:11;101435.16;;;14.19;100.00
70370;BME280;57790;51.356;-2.906;2023-05-09T04:31:12;101423.13;;;14.15;100.00
70370;BME280;57790;51.356;-2.906;2023-05-09T04:34:13;101433.63;;;14.17;100.00
70370;BME280;57790;51.356;-2.906;2023-05-09T04:37:14;101420.66;;;14.14;100.00
70370;BME280;57790;51.356;-2.906;2023-05-09T04:40:14;101416.31;;;14.13;100.00
70370;BME280;57790;51.356;-2.906;2023-05-09T04:43:15;101410.31;;;14.11;100.00
70370;BME280;57790;51.356;-2.906;2023-05-09T04:46:16;101407.50;;;14.12;100.00
70370;BME280;57790;51.356;-2.906;2023-05-09T04:49:16;101409.31;;;14.12;100.00
70370;BME280;57790;51.356;-2.906;2023-05-09T04:52:16;101408.66;;;14.10;100.00
70370;BME280;57790;51.356;-2.906;2023-05-09T04:55:17;101416.00;;;14.08;100.00
70370;BME280;57790;51.356;-2.906;2023-05-09T04:58:17;101411.66;;;14.07;100.00
70370;BME280;57790;51.356;-2.906;2023-05-09T05:01:18;101410.84;;;14.06;100.00
70370;BME280;57790;51.356;-2.906;2023-05-09T05:04:18;101403.84;;;14.05;100.00
70370;BME280;57790;51.356;-2.906;2023-05-09T05:07:18;101397.81;;;14.03;100.00
70370;BME280;57790;51.356;-2.906;2023-05-09T05:10:19;101396.03;;;14.04;100.00
70370;BME280;57790;51.356;-2.906;2023-05-09T05:13:19;101393.50;;;14.02;100.00
70370;BME280;57790;51.356;-2.906;2023-05-09T05:16:20;101391.66;;;14.03;100.00
70370;BME280;57790;51.356;-2.906;2023-05-09T05:19:21;101388.16;;;14.02;100.00
70370;BME280;57790;51.356;-2.906;2023-05-09T05:22:21;101399.66;;;14.03;100.00
70370;BME280;57790;51.356;-2.906;2023-05-09T05:25:22;101404.16;;;14.02;100.00
70370;BME280;57790;51.356;-2.906;2023-05-09T05:28:22;101406.81;;;14.02;100.00
70370;BME280;57790;51.356;-2.906;2023-05-09T05:31:23;101405.00;;;14.03;100.00
70370;BME280;57790;51.356;-2.906;2023-05-09T05:34:23;101396.03;;;14.04;100.00
70370;BME280;57790;51.356;-2.906;2023-05-09T05:37:23;101394.31;;;14.03;100.00
70370;BME280;57790;51.356;-2.906;2023-05-09T05:40:24;101406.00;;;14.02;100.00
70370;BME280;57790;51.356;-2.906;2023-05-09T05:43:25;101412.16;;;14.02;100.00
70370;BME280;57790;51.356;-2.906;2023-05-09T05:46:25;101407.81;;;14.01;100.00
70370;BME280;57790;51.356;-2.906;2023-05-09T05:49:26;101402.50;;;14.01;100.00
70370;BME280;57790;51.356;-2.906;2023-05-09T05:52:26;101402.31;;;14.03;100.00
70370;BME280;57790;51.356;-2.906;2023-05-09T05:55:27;101405.81;;;14.03;100.00
70370;BME280;57790;51.356;-2.906;2023-05-09T05:58:27;101402.31;;;14.03;100.00
70370;BME280;57790;51.356;-2.906;2023-05-09T06:01:27;101402.31;;;14.03;100.00
70370;BME280;57790;51.356;-2.906;2023-05-09T06:04:28;101409.50;;;14.02;100.00
70370;BME280;57790;51.356;-2.906;2023-05-09T06:07:28;101412.03;;;14.04;100.00
70370;BME280;57790;51.356;-2.906;2023-05-09T06:10:29;101409.19;;;14.05;100.00
70370;BME280;57790;51.356;-2.906;2023-05-09T06:13:29;101418.00;;;14.06;100.00
70370;BME280;57790;51.356;-2.906;2023-05-09T06:16:31;101412.84;;;14.04;100.00
70370;BME280;57790;51.356;-2.906;2023-05-09T06:19:31;101411.84;;;14.05;100.00
70370;BME280;57790;51.356;-2.906;2023-05-09T06:22:32;101415.34;;;14.06;100.00
70370;BME280;57790;51.356;-2.906;2023-05-09T06:25:32;101412.34;;;14.09;100.00
70370;BME280;57790;51.356;-2.906;2023-05-09T06:28:33;101405.16;;;14.09;100.00
70370;BME280;57790;51.356;-2.906;2023-05-09T06:31:33;101399.84;;;14.09;100.00
70370;BME280;57790;51.356;-2.906;2023-05-09T06:34:37;101404.34;;;14.09;100.00
70370;BME280;57790;51.356;-2.906;2023-05-09T06:37:37;101399.66;;;14.11;100.00
70370;BME280;57790;51.356;-2.906;2023-05-09T06:40:38;101400.84;;;14.08;100.00
70370;BME280;57790;51.356;-2.906;2023-05-09T06:43:38;101395.81;;;14.13;100.00
70370;BME280;57790;51.356;-2.906;2023-05-09T06:46:39;101393.97;;;14.14;100.00
70370;BME280;57790;51.356;-2.906;2023-05-09T06:49:39;101394.81;;;14.14;100.00
70370;BME280;57790;51.356;-2.906;2023-05-09T06:52:39;101401.97;;;14.14;100.00
70370;BME280;57790;51.356;-2.906;2023-05-09T06:55:40;101395.66;;;14.15;100.00
70370;BME280;57790;51.356;-2.906;2023-05-09T06:58:41;101394.31;;;14.19;100.00
70370;BME280;57790;51.356;-2.906;2023-05-09T07:01:41;101400.50;;;14.19;100.00
70370;BME280;57790;51.356;-2.906;2023-05-09T07:04:42;101392.31;;;14.21;100.00
70370;BME280;57790;51.356;-2.906;2023-05-09T07:07:42;101391.31;;;14.22;100.00
70370;BME280;57790;51.356;-2.906;2023-05-09T07:10:43;101389.47;;;14.22;100.00
70370;BME280;57790;51.356;-2.906;2023-05-09T07:13:46;101386.63;;;14.24;100.00
70370;BME280;57790;51.356;-2.906;2023-05-09T07:16:47;101392.63;;;14.26;100.00
70370;BME280;57790;51.356;-2.906;2023-05-09T07:19:47;101384.63;;;14.26;100.00
70370;BME280;57790;51.356;-2.906;2023-05-09T07:22:47;101382.63;;;14.28;100.00
70370;BME280;57790;51.356;-2.906;2023-05-09T07:25:48;101380.97;;;14.27;100.00
70370;BME280;57790;51.356;-2.906;2023-05-09T07:28:48;101385.09;;;14.29;100.00
70370;BME280;57790;51.356;-2.906;2023-05-09T07:31:49;101383.28;;;14.30;100.00
70370;BME280;57790;51.356;-2.906;2023-05-09T07:34:49;101387.59;;;14.31;100.00
70370;BME280;57790;51.356;-2.906;2023-05-09T07:37:49;101377.75;;;14.32;100.00
70370;BME280;57790;51.356;-2.906;2023-05-09T07:40:50;101370.63;;;14.32;100.00
70370;BME280;57790;51.356;-2.906;2023-05-09T07:43:52;101365.94;;;14.34;100.00
70370;BME280;57790;51.356;-2.906;2023-05-09T07:46:52;101357.78;;;14.36;100.00
70370;BME280;57790;51.356;-2.906;2023-05-09T07:49:54;101361.91;;;14.38;100.00
70370;BME280;57790;51.356;-2.906;2023-05-09T07:52:55;101369.56;;;14.41;100.00
70370;BME280;57790;51.356;-2.906;2023-05-09T07:55:55;101365.91;;;14.42;100.00
70370;BME280;57790;51.356;-2.906;2023-05-09T07:58:57;101369.41;;;14.43;100.00
70370;BME280;57790;51.356;-2.906;2023-05-09T08:01:57;101369.25;;;14.44;100.00
70370;BME280;57790;51.356;-2.906;2023-05-09T08:04:58;101361.06;;;14.46;100.00
70370;BME280;57790;51.356;-2.906;2023-05-09T08:07:58;101364.56;;;14.46;100.00
70370;BME280;57790;51.356;-2.906;2023-05-09T08:10:59;101366.28;;;14.47;100.00
70370;BME280;57790;51.356;-2.906;2023-05-09T08:13:59;101371.44;;;14.49;100.00
70370;BME280;57790;51.356;-2.906;2023-05-09T08:17:00;101362.59;;;14.48;100.00
70370;BME280;57790;51.356;-2.906;2023-05-09T08:20:00;101363.25;;;14.50;100.00
70370;BME280;57790;51.356;-2.906;2023-05-09T08:23:00;101360.41;;;14.52;100.00
70370;BME280;57790;51.356;-2.906;2023-05-09T08:26:01;101357.91;;;14.50;100.00
70370;BME280;57790;51.356;-2.906;2023-05-09T08:29:01;101360.41;;;14.52;100.00
70370;BME280;57790;51.356;-2.906;2023-05-09T08:32:02;101357.75;;;14.52;100.00
70370;BME280;57790;51.356;-2.906;2023-05-09T08:35:02;101361.06;;;14.54;100.00
70370;BME280;57790;51.356;-2.906;2023-05-09T08:38:03;101355.56;;;14.55;100.00
70370;BME280;57790;51.356;-2.906;2023-05-09T08:41:03;101350.22;;;14.55;100.00
70370;BME280;57790;51.356;-2.906;2023-05-09T08:44:04;101362.53;;;14.56;100.00
70370;BME280;57790;51.356;-2.906;2023-05-09T08:47:05;101353.72;;;14.56;100.00
70370;BME280;57790;51.356;-2.906;2023-05-09T08:50:08;101346.34;;;14.58;100.00
70370;BME280;57790;51.356;-2.906;2023-05-09T08:53:10;101344.53;;;14.58;100.00
70370;BME280;57790;51.356;-2.906;2023-05-09T08:56:11;101341.03;;;14.58;100.00
70370;BME280;57790;51.356;-2.906;2023-05-09T08:59:12;101339.00;;;14.60;100.00
70370;BME280;57790;51.356;-2.906;2023-05-09T09:02:13;101342.00;;;14.65;100.00
70370;BME280;57790;51.356;-2.906;2023-05-09T09:05:14;101339.50;;;14.64;100.00
70370;BME280;57790;51.356;-2.906;2023-05-09T09:08:15;101331.50;;;14.64;100.00
70370;BME280;57790;51.356;-2.906;2023-05-09T09:11:16;101337.84;;;14.63;100.00
70370;BME280;57790;51.356;-2.906;2023-05-09T09:14:22;101329.66;;;14.64;100.00
70370;BME280;57790;51.356;-2.906;2023-05-09T09:17:25;101335.47;;;14.68;100.00
70370;BME280;57790;51.356;-2.906;2023-05-09T09:20:28;101332.81;;;14.68;100.00
70370;BME280;57790;51.356;-2.906;2023-05-09T09:23:31;101337.16;;;14.69;100.00
70370;BME280;57790;51.356;-2.906;2023-05-09T09:26:32;101335.47;;;14.68;100.00
70370;BME280;57790;51.356;-2.906;2023-05-09T09:29:33;101331.81;;;14.69;100.00
70370;BME280;57790;51.356;-2.906;2023-05-09T09:32:34;101331.81;;;14.69;100.00
70370;BME280;57790;51.356;-2.906;2023-05-09T09:35:38;101328.31;;;14.68;100.00
70370;BME280;57790;51.356;-2.906;2023-05-09T09:38:40;101333.66;;;14.68;100.00
70370;BME280;57790;51.356;-2.906;2023-05-09T09:41:43;101335.97;;;14.71;100.00
70370;BME280;57790;51.356;-2.906;2023-05-09T09:44:51;101334.78;;;14.74;100.00
70370;BME280;57790;51.356;-2.906;2023-05-09T09:47:55;101333.28;;;14.71;100.00
70370;BME280;57790;51.356;-2.906;2023-05-09T09:50:55;101335.97;;;14.71;100.00
70370;BME280;57790;51.356;-2.906;2023-05-09T09:53:56;101333.94;;;14.73;100.00
70370;BME280;57790;51.356;-2.906;2023-05-09T09:56:56;101326.59;;;14.75;100.00
70370;BME280;57790;51.356;-2.906;2023-05-09T09:59:57;101329.44;;;14.74;100.00
70370;BME280;57790;51.356;-2.906;2023-05-09T10:02:58;101326.75;;;14.74;100.00
70370;BME280;57790;51.356;-2.906;2023-05-09T10:06:02;101327.78;;;14.73;100.00
70370;BME280;57790;51.356;-2.906;2023-05-09T10:09:03;101322.09;;;14.76;100.00
70370;BME280;57790;51.356;-2.906;2023-05-09T10:12:04;101317.94;;;14.73;100.00
70370;BME280;57790;51.356;-2.906;2023-05-09T10:15:08;101321.09;;;14.77;100.00
70370;BME280;57790;51.356;-2.906;2023-05-09T10:18:11;101302.25;;;14.78;100.00
70370;BME280;57790;51.356;-2.906;2023-05-09T10:21:14;101299.22;;;14.81;100.00
70370;BME280;57790;51.356;-2.906;2023-05-09T10:24:16;101295.53;;;14.82;100.00
70370;BME280;57790;51.356;-2.906;2023-05-09T10:27:21;101299.50;;;14.86;100.00
70370;BME280;57790;51.356;-2.906;2023-05-09T10:30:30;101290.66;;;14.86;100.00
70370;BME280;57790;51.356;-2.906;2023-05-09T10:33:48;101291.50;;;14.86;100.00
70370;BME280;57790;51.356;-2.906;2023-05-09T10:36:49;101285.13;;;14.87;100.00
70370;BME280;57790;51.356;-2.906;2023-05-09T10:39:50;101284.13;;;14.88;100.00
70370;BME280;57790;51.356;-2.906;2023-05-09T10:42:52;101292.63;;;14.92;100.00
70370;BME280;57790;51.356;-2.906;2023-05-09T10:45:53;101283.44;;;14.95;100.00
70370;BME280;57790;51.356;-2.906;2023-05-09T10:48:54;101287.94;;;14.94;100.00
70370;BME280;57790;51.356;-2.906;2023-05-09T10:51:55;101287.94;;;14.94;100.00
70370;BME280;57790;51.356;-2.906;2023-05-09T10:55:02;101288.78;;;14.95;100.00
70370;BME280;57790;51.356;-2.906;2023-05-09T10:58:17;101286.75;;;14.97;100.00
70370;BME280;57790;51.356;-2.906;2023-05-09T11:01:29;101287.22;;;15.00;100.00
70370;BME280;57790;51.356;-2.906;2023-05-09T11:04:34;101286.03;;;15.03;100.00
70370;BME280;57790;51.356;-2.906;2023-05-09T11:07:34;101274.84;;;15.07;100.00
70370;BME280;57790;51.356;-2.906;2023-05-09T11:10:41;101280.00;;;15.09;100.00
70370;BME280;57790;51.356;-2.906;2023-05-09T11:13:44;101275.50;;;15.09;100.00
70370;BME280;57790;51.356;-2.906;2023-05-09T11:16:59;101261.94;;;15.11;100.00
70370;BME280;57790;51.356;-2.906;2023-05-09T11:20:03;101269.41;;;15.15;100.00
70370;BME280;57790;51.356;-2.906;2023-05-09T11:23:05;101263.72;;;15.18;100.00
70370;BME280;57790;51.356;-2.906;2023-05-09T11:26:07;101265.03;;;15.23;100.00
70370;BME280;57790;51.356;-2.906;2023-05-09T11:29:07;101259.13;;;15.27;100.00
70370;BME280;57790;51.356;-2.906;2023-05-09T11:32:12;101258.13;;;15.28;100.00
70370;BME280;57790;51.356;-2.906;2023-05-09T11:35:18;101247.06;;;15.31;100.00
70370;BME280;57790;51.356;-2.906;2023-05-09T11:38:20;101248.22;;;15.37;100.00
70370;BME280;57790;51.356;-2.906;2023-05-09T11:41:21;101247.47;;;15.43;100.00
70370;BME280;57790;51.356;-2.906;2023-05-09T11:44:23;101240.94;;;15.45;100.00
70370;BME280;57790;51.356;-2.906;2023-05-09T11:47:24;101245.75;;;15.50;100.00
70370;BME280;57790;51.356;-2.906;2023-05-09T11:50:24;101228.34;;;15.54;100.00
70370;BME280;57790;51.356;-2.906;2023-05-09T11:53:25;101217.25;;;15.57;100.00
70370;BME280;57790;51.356;-2.906;2023-05-09T11:56:25;101210.22;;;15.64;100.00
70370;BME280;57790;51.356;-2.906;2023-05-09T11:59:27;101217.69;;;15.69;100.00
70370;BME280;57790;51.356;-2.906;2023-05-09T12:02:27;101209.22;;;15.80;100.00
70370;BME280;57790;51.356;-2.906;2023-05-09T12:05:28;101201.44;;;15.85;100.00
70370;BME280;57790;51.356;-2.906;2023-05-09T12:08:29;101199.50;;;15.94;100.00
70370;BME280;57790;51.356;-2.906;2023-05-09T12:11:29;101194.25;;;16.00;100.00
70370;BME280;57790;51.356;-2.906;2023-05-09T12:14:32;101186.47;;;16.05;100.00
70370;BME280;57790;51.356;-2.906;2023-05-09T12:17:36;101177.34;;;16.15;100.00
70370;BME280;57790;51.356;-2.906;2023-05-09T12:20:43;101183.31;;;16.17;100.00
70370;BME280;57790;51.356;-2.906;2023-05-09T12:23:45;101186.09;;;16.23;100.00
70370;BME280;57790;51.356;-2.906;2023-05-09T12:26:47;101183.66;;;16.28;100.00
70370;BME280;57790;51.356;-2.906;2023-05-09T12:29:48;101181.63;;;16.30;100.00
70370;BME280;57790;51.356;-2.906;2023-05-09T12:32:49;101176.72;;;16.34;100.00
70370;BME280;57790;51.356;-2.906;2023-05-09T12:39:08;101178.47;;;16.42;100.00
70370;BME280;57790;51.356;-2.906;2023-05-09T12:42:12;101180.94;;;16.43;100.00
70370;BME280;57790;51.356;-2.906;2023-05-09T12:45:13;101171.31;;;16.49;100.00
70370;BME280;57790;51.356;-2.906;2023-05-09T12:48:13;101175.09;;;16.54;100.00
70370;BME280;57790;51.356;-2.906;2023-05-09T12:51:18;101167.31;;;16.59;100.00
70370;BME280;57790;51.356;-2.906;2023-05-09T12:54:24;101165.91;;;16.63;100.00
70370;BME280;57790;51.356;-2.906;2023-05-09T12:57:25;101161.19;;;16.65;100.00
70370;BME280;57790;51.356;-2.906;2023-05-09T13:00:27;101157.69;;;16.65;100.00
70370;BME280;57790;51.356;-2.906;2023-05-09T13:03:28;101164.72;;;16.66;100.00
70370;BME280;57790;51.356;-2.906;2023-05-09T13:06:30;101167.84;;;16.70;100.00
70370;BME280;57790;51.356;-2.906;2023-05-09T13:09:31;101163.13;;;16.72;100.00
70370;BME280;57790;51.356;-2.906;2023-05-09T13:12:36;101166.44;;;16.74;100.00
70370;BME280;57790;51.356;-2.906;2023-05-09T13:15:37;101166.25;;;16.75;100.00
70370;BME280;57790;51.356;-2.906;2023-05-09T13:18:38;101163.38;;;16.77;100.00
70370;BME280;57790;51.356;-2.906;2023-05-09T13:21:38;101165.88;;;16.78;100.00
70370;BME280;57790;51.356;-2.906;2023-05-09T13:24:39;101162.19;;;16.79;100.00
70370;BME280;57790;51.356;-2.906;2023-05-09T13:27:39;101166.50;;;16.80;100.00
70370;BME280;57790;51.356;-2.906;2023-05-09T13:30:40;101162.81;;;16.81;100.00
70370;BME280;57790;51.356;-2.906;2023-05-09T13:33:40;101159.31;;;16.81;100.00
70370;BME280;57790;51.356;-2.906;2023-05-09T13:36:40;101155.81;;;16.80;100.00
70370;BME280;57790;51.356;-2.906;2023-05-09T13:39:41;101162.00;;;16.81;100.00
70370;BME280;57790;51.356;-2.906;2023-05-09T13:42:41;101162.19;;;16.79;100.00
70370;BME280;57790;51.356;-2.906;2023-05-09T13:45:42;101162.81;;;16.81;100.00
70370;BME280;57790;51.356;-2.906;2023-05-09T13:48:42;101162.19;;;16.79;100.00
70370;BME280;57790;51.356;-2.906;2023-05-09T13:51:43;101153.13;;;16.80;100.00
70370;BME280;57790;51.356;-2.906;2023-05-09T13:54:43;101153.94;;;16.81;100.00
70370;BME280;57790;51.356;-2.906;2023-05-09T13:57:44;101156.44;;;16.82;100.00
70370;BME280;57790;51.356;-2.906;2023-05-09T14:00:44;101157.47;;;16.81;100.00
70370;BME280;57790;51.356;-2.906;2023-05-09T14:03:45;101159.13;;;16.82;100.00
70370;BME280;57790;51.356;-2.906;2023-05-09T14:06:48;101156.44;;;16.82;100.00
70370;BME280;57790;51.356;-2.906;2023-05-09T14:09:49;101156.44;;;16.82;100.00
70370;BME280;57790;51.356;-2.906;2023-05-09T14:12:49;101163.44;;;16.83;100.00
70370;BME280;57790;51.356;-2.906;2023-05-09T14:15:50;101167.78;;;16.84;100.00
70370;BME280;57790;51.356;-2.906;2023-05-09T14:18:51;101163.84;;;16.80;100.00
70370;BME280;57790;51.356;-2.906;2023-05-09T14:21:51;101159.94;;;16.83;100.00
70370;BME280;57790;51.356;-2.906;2023-05-09T14:24:52;101150.66;;;16.79;100.00
70370;BME280;57790;51.356;-2.906;2023-05-09T14:27:53;101145.72;;;16.82;100.00
70370;BME280;57790;51.356;-2.906;2023-05-09T14:30:53;101149.22;;;16.83;100.00
70370;BME280;57790;51.356;-2.906;2023-05-09T14:33:54;101149.44;;;16.81;100.00
70370;BME280;57790;51.356;-2.906;2023-05-09T14:36:54;101146.13;;;16.79;100.00
70370;BME280;57790;51.356;-2.906;2023-05-09T14:39:55;101146.13;;;16.79;100.00
70370;BME280;57790;51.356;-2.906;2023-05-09T14:42:56;101143.81;;;16.76;100.00
70370;BME280;57790;51.356;-2.906;2023-05-09T14:45:56;101137.19;;;16.72;100.00
70370;BME280;57790;51.356;-2.906;2023-05-09T14:48:56;101133.06;;;16.70;100.00
70370;BME280;57790;51.356;-2.906;2023-05-09T14:52:03;101129.75;;;16.68;100.00
70370;BME280;57790;51.356;-2.906;2023-05-09T14:55:03;101116.25;;;16.61;100.00
70370;BME280;57790;51.356;-2.906;2023-05-09T14:58:05;101117.66;;;16.57;100.00
70370;BME280;57790;51.356;-2.906;2023-05-09T15:01:06;101109.19;;;16.53;100.00
70370;BME280;57790;51.356;-2.906;2023-05-09T15:04:07;101103.56;;;16.48;100.00
70370;BME280;57790;51.356;-2.906;2023-05-09T15:07:08;101104.34;;;16.42;100.00
70370;BME280;57790;51.356;-2.906;2023-05-09T15:10:09;101109.25;;;16.39;100.00
70370;BME280;57790;51.356;-2.906;2023-05-09T15:13:10;101106.97;;;16.35;100.00
70370;BME280;57790;51.356;-2.906;2023-05-09T15:16:10;101098.69;;;16.30;100.00
70370;BME280;57790;51.356;-2.906;2023-05-09T15:19:11;101100.09;;;16.26;100.00
70370;BME280;57790;51.356;-2.906;2023-05-09T15:22:11;101092.44;;;16.23;100.00
70370;BME280;57790;51.356;-2.906;2023-05-09T15:25:12;101088.31;;;16.21;100.00
70370;BME280;57790;51.356;-2.906;2023-05-09T15:28:13;101081.66;;;16.17;100.00
70370;BME280;57790;51.356;-2.906;2023-05-09T15:31:13;101081.22;;;16.13;100.00
70370;BME280;57790;51.356;-2.906;2023-05-09T15:34:14;101076.44;;;16.09;100.00
70370;BME280;57790;51.356;-2.906;2023-05-09T15:37:14;101069.81;;;16.04;100.00
70370;BME280;57790;51.356;-2.906;2023-05-09T15:40:15;101083.56;;;16.01;100.00